createdAt,value
2023-05-02T00:01:05.976Z,54.84
2023-05-02T00:03:32.638Z,54.85
2023-05-02T00:05:59.344Z,55.52
2023-05-02T00:08:25.945Z,55.15
2023-05-02T00:10:52.535Z,55.37
2023-05-02T00:13:19.131Z,54.95
2023-05-02T00:15:45.701Z,55.18
2023-05-02T00:18:12.348Z,55.17
2023-05-02T00:20:38.979Z,55.18
2023-05-02T00:23:05.577Z,55.37
2023-05-02T00:25:32.146Z,55.97
2023-05-02T00:27:58.743Z,56.24
2023-05-02T00:30:25.396Z,56.25
2023-05-02T00:32:52.032Z,56.35
2023-05-02T00:35:18.995Z,56.10
2023-05-02T00:37:45.636Z,55.87
2023-05-02T00:40:12.234Z,55.78
2023-05-02T00:42:38.796Z,56.36
2023-05-02T00:45:05.384Z,56.07
2023-05-02T00:47:32.033Z,56.29
2023-05-02T00:49:58.846Z,56.00
2023-05-02T00:52:25.669Z,55.93
2023-05-02T00:54:52.237Z,56.10
2023-05-02T00:57:18.842Z,56.69
2023-05-02T00:59:45.664Z,56.95
2023-05-02T01:02:12.375Z,57.14
2023-05-02T01:04:39.124Z,56.87
2023-05-02T01:07:05.700Z,56.82
2023-05-02T01:09:32.309Z,57.02
2023-05-02T01:11:58.867Z,57.16
2023-05-02T01:14:25.466Z,57.33
2023-05-02T01:16:52.083Z,57.41
2023-05-02T01:19:18.657Z,57.16
2023-05-02T01:21:45.265Z,57.42
2023-05-02T01:24:12.680Z,57.71
2023-05-02T01:26:39.308Z,57.44
2023-05-02T01:29:05.874Z,57.44
2023-05-02T01:31:32.519Z,56.91
2023-05-02T01:33:59.104Z,57.55
2023-05-02T01:36:25.730Z,56.92
2023-05-02T01:38:52.292Z,56.92
2023-05-02T01:41:18.878Z,57.52
2023-05-02T01:43:45.447Z,57.79
2023-05-02T01:46:12.207Z,58.28
2023-05-02T01:48:38.793Z,58.26
2023-05-02T01:51:05.382Z,57.88
2023-05-02T01:53:32.150Z,58.13
2023-05-02T01:55:58.781Z,58.03
2023-05-02T01:58:25.373Z,57.74
2023-05-02T02:00:52.109Z,57.73
2023-05-02T02:03:18.787Z,58.02
2023-05-02T02:05:45.392Z,57.95
2023-05-02T02:08:11.967Z,58.61
2023-05-02T02:10:38.576Z,58.60
2023-05-02T02:13:05.164Z,58.10
2023-05-02T02:15:31.744Z,58.36
2023-05-02T02:17:58.489Z,58.36
2023-05-02T02:20:25.158Z,58.57
2023-05-02T02:22:51.829Z,59.01
2023-05-02T02:25:18.392Z,58.38
2023-05-02T02:27:45.100Z,58.72
2023-05-02T02:30:12.054Z,58.35
2023-05-02T02:32:38.866Z,58.08
2023-05-02T02:35:05.478Z,58.93
2023-05-02T02:37:32.099Z,58.79
2023-05-02T02:39:58.873Z,58.63
2023-05-02T02:42:25.658Z,59.15
2023-05-02T02:44:56.641Z,58.88
2023-05-02T02:47:23.333Z,57.93
2023-05-02T02:49:49.933Z,59.70
2023-05-02T02:52:16.499Z,59.21
2023-05-02T02:54:43.224Z,59.63
2023-05-02T02:57:09.867Z,59.20
2023-05-02T02:59:36.465Z,59.12
2023-05-02T03:02:03.198Z,58.97
2023-05-02T03:04:29.897Z,58.67
2023-05-02T03:06:56.770Z,58.28
2023-05-02T03:09:23.403Z,58.18
2023-05-02T03:11:50.322Z,58.23
2023-05-02T03:14:16.920Z,57.92
2023-05-02T03:16:43.635Z,57.84
2023-05-02T03:19:10.261Z,58.23
2023-05-02T03:21:36.858Z,58.67
2023-05-02T03:24:03.490Z,58.33
2023-05-02T03:26:30.483Z,58.33
2023-05-02T03:28:57.092Z,58.07
2023-05-02T03:31:26.205Z,58.63
2023-05-02T03:33:53.845Z,58.67
2023-05-02T03:36:20.456Z,58.61
2023-05-02T03:38:47.190Z,58.30
2023-05-02T03:41:13.781Z,58.22
2023-05-02T03:43:40.379Z,58.66
2023-05-02T03:46:07.017Z,58.76
2023-05-02T03:48:33.597Z,59.25
2023-05-02T03:51:00.148Z,58.75
2023-05-02T03:53:26.852Z,59.03
2023-05-02T03:55:53.427Z,59.32
2023-05-02T03:58:19.996Z,59.55
2023-05-02T04:00:46.622Z,59.84
2023-05-02T04:03:13.227Z,59.63
2023-05-02T04:05:39.905Z,60.35
2023-05-02T04:08:06.467Z,59.92
2023-05-02T04:10:33.055Z,60.41
2023-05-02T04:12:59.722Z,60.21
2023-05-02T04:15:26.375Z,60.55
2023-05-02T04:17:53.122Z,60.26
2023-05-02T04:20:19.727Z,60.73
2023-05-02T04:22:46.277Z,60.08
2023-05-02T04:25:12.846Z,60.28
2023-05-02T04:27:39.647Z,60.66
2023-05-02T04:30:06.210Z,60.00
2023-05-02T04:32:32.886Z,59.87
2023-05-02T04:34:59.499Z,60.90
2023-05-02T04:37:26.082Z,59.92
2023-05-02T04:39:52.680Z,60.54
2023-05-02T04:42:19.240Z,60.40
2023-05-02T04:44:45.985Z,61.08
2023-05-02T04:47:13.620Z,61.55
2023-05-02T04:49:40.223Z,60.96
2023-05-02T04:52:06.782Z,60.81
2023-05-02T04:54:33.362Z,61.55
2023-05-02T04:56:59.998Z,61.25
2023-05-02T04:59:26.640Z,61.86
2023-05-02T05:01:53.282Z,61.93
2023-05-02T05:04:20.029Z,63.00
2023-05-02T05:06:46.774Z,62.28
2023-05-02T05:09:13.353Z,62.06
2023-05-02T05:11:39.979Z,61.19
2023-05-02T05:14:06.588Z,60.18
2023-05-02T05:16:33.444Z,60.13
2023-05-02T05:19:00.141Z,59.70
2023-05-02T05:21:26.723Z,60.45
2023-05-02T05:23:53.336Z,61.25
2023-05-02T05:26:19.900Z,60.88
2023-05-02T05:28:46.495Z,60.38
2023-05-02T05:31:15.213Z,60.10
2023-05-02T05:33:43.323Z,59.98
2023-05-02T05:36:09.950Z,60.79
2023-05-02T05:38:36.553Z,60.46
2023-05-02T05:41:03.183Z,60.37
2023-05-02T05:43:29.779Z,60.04
2023-05-02T05:45:56.367Z,59.78
2023-05-02T05:48:23.028Z,59.83
2023-05-02T05:50:49.738Z,60.57
2023-05-02T05:53:16.387Z,61.51
2023-05-02T05:55:43.342Z,61.95
2023-05-02T05:58:09.985Z,62.13
2023-05-02T06:00:36.598Z,61.11
2023-05-02T06:03:03.312Z,61.41
2023-05-02T06:05:30.244Z,60.90
2023-05-02T06:07:56.869Z,60.84
2023-05-02T06:10:23.968Z,61.33
2023-05-02T06:12:50.602Z,62.06
2023-05-02T06:15:17.186Z,61.83
2023-05-02T06:17:43.843Z,63.12
2023-05-02T06:20:10.457Z,63.42
2023-05-02T06:22:37.065Z,62.62
2023-05-02T06:25:03.682Z,61.79
2023-05-02T06:27:33.683Z,63.15
2023-05-02T06:30:00.798Z,62.91
2023-05-02T06:32:27.950Z,63.84
2023-05-02T06:34:54.565Z,64.44
2023-05-02T06:37:21.364Z,64.29
2023-05-02T06:39:47.969Z,63.78
2023-05-02T06:42:14.558Z,63.48
2023-05-02T06:44:41.194Z,63.97
2023-05-02T06:47:07.912Z,63.60
2023-05-02T06:49:34.544Z,63.17
2023-05-02T06:52:01.149Z,63.26
2023-05-02T06:54:28.817Z,64.29
2023-05-02T06:56:55.440Z,64.46
2023-05-02T06:59:22.025Z,64.89
2023-05-02T07:01:48.636Z,65.07
2023-05-02T07:04:15.273Z,64.93
2023-05-02T07:06:41.922Z,64.14
2023-05-02T07:09:08.563Z,64.77
2023-05-02T07:11:35.128Z,64.84
2023-05-02T07:14:01.833Z,64.47
2023-05-02T07:16:28.686Z,64.40
2023-05-02T07:18:55.516Z,63.98
2023-05-02T07:21:22.102Z,63.26
2023-05-02T07:23:48.693Z,64.04
2023-05-02T07:26:15.294Z,63.60
2023-05-02T07:28:41.863Z,64.79
2023-05-02T07:31:08.460Z,65.56
2023-05-02T07:33:35.040Z,64.86
2023-05-02T07:36:01.650Z,64.14
2023-05-02T07:38:28.267Z,64.38
2023-05-02T07:40:54.855Z,63.32
2023-05-02T07:43:21.475Z,63.69
2023-05-02T07:45:48.058Z,62.73
2023-05-02T07:48:14.734Z,63.63
2023-05-02T07:50:41.372Z,62.37
2023-05-02T07:53:07.980Z,62.79
2023-05-02T07:55:34.573Z,62.06
2023-05-02T07:58:01.172Z,61.97
2023-05-02T08:00:27.754Z,62.86
2023-05-02T08:02:54.484Z,62.89
2023-05-02T08:05:21.209Z,62.16
2023-05-02T08:07:47.794Z,61.15
2023-05-02T08:10:14.365Z,61.20
2023-05-02T08:12:40.982Z,60.71
2023-05-02T08:15:07.579Z,60.81
2023-05-02T08:17:34.331Z,60.50
2023-05-02T08:20:04.030Z,60.29
2023-05-02T08:22:30.601Z,59.69
2023-05-02T08:24:57.206Z,59.52
2023-05-02T08:27:23.762Z,59.70
2023-05-02T08:29:50.347Z,59.57
2023-05-02T08:32:17.141Z,58.72
2023-05-02T08:34:43.777Z,59.09
2023-05-02T08:37:10.432Z,59.18
2023-05-02T08:39:37.009Z,58.59
2023-05-02T08:42:03.602Z,58.85
2023-05-02T08:44:30.205Z,58.40
2023-05-02T08:46:56.934Z,58.16
2023-05-02T08:49:23.730Z,58.63
2023-05-02T08:51:50.479Z,58.04
2023-05-02T08:54:17.275Z,57.74
2023-05-02T08:56:43.870Z,58.04
2023-05-02T08:59:10.463Z,57.66
2023-05-02T09:01:37.088Z,57.22
2023-05-02T09:04:03.823Z,55.75
2023-05-02T09:06:30.470Z,57.09
2023-05-02T09:08:57.117Z,56.14
2023-05-02T09:11:23.730Z,54.72
2023-05-02T09:13:50.345Z,54.25
2023-05-02T09:16:16.966Z,55.25
2023-05-02T09:18:43.574Z,54.21
2023-05-02T09:21:12.582Z,54.53
2023-05-02T09:23:39.495Z,54.33
2023-05-02T09:26:06.123Z,53.56
2023-05-02T09:28:32.706Z,54.70
2023-05-02T09:30:59.337Z,54.37
2023-05-02T09:33:26.060Z,54.56
2023-05-02T09:35:52.645Z,53.41
2023-05-02T09:38:19.211Z,53.53
2023-05-02T09:40:45.799Z,53.40
2023-05-02T09:43:12.390Z,52.45
2023-05-02T09:45:38.957Z,53.00
2023-05-02T09:48:05.618Z,52.54
2023-05-02T09:50:32.930Z,52.40
2023-05-02T09:52:59.748Z,52.42
2023-05-02T09:55:26.330Z,52.79
2023-05-02T09:57:52.908Z,51.67
2023-05-02T10:00:19.532Z,51.18
2023-05-02T10:02:46.187Z,51.42
2023-05-02T10:05:12.771Z,50.90
2023-05-02T10:07:39.360Z,51.65
2023-05-02T10:10:05.950Z,51.65
2023-05-02T10:12:32.574Z,51.74
2023-05-02T10:14:59.404Z,51.73
2023-05-02T10:17:26.340Z,51.80
2023-05-02T10:19:52.957Z,52.32
2023-05-02T10:22:19.573Z,51.76
2023-05-02T10:24:46.256Z,51.16
2023-05-02T10:27:12.863Z,51.05
2023-05-02T10:29:39.485Z,50.24
2023-05-02T10:32:06.248Z,50.53
2023-05-02T10:34:33.126Z,50.48
2023-05-02T10:36:59.789Z,51.06
2023-05-02T10:39:26.483Z,51.78
2023-05-02T10:41:53.076Z,50.33
2023-05-02T10:44:19.727Z,51.67
2023-05-02T10:46:46.377Z,50.81
2023-05-02T10:49:13.022Z,51.34
2023-05-02T10:51:39.666Z,51.81
2023-05-02T10:54:06.278Z,51.36
2023-05-02T10:56:32.852Z,49.11
2023-05-02T10:58:59.433Z,49.50
2023-05-02T11:01:26.074Z,50.40
2023-05-02T11:03:52.816Z,50.49
2023-05-02T11:06:19.541Z,50.63
2023-05-02T11:08:46.241Z,51.28
2023-05-02T11:11:12.797Z,51.18
2023-05-02T11:13:39.356Z,52.30
2023-05-02T11:16:06.173Z,51.94
2023-05-02T11:18:32.836Z,51.82
2023-05-02T11:20:59.449Z,51.58
2023-05-02T11:23:26.270Z,51.88
2023-05-02T11:25:52.982Z,51.18
2023-05-02T11:28:19.983Z,51.34
2023-05-02T11:30:46.570Z,51.93
2023-05-02T11:33:13.200Z,51.64
2023-05-02T11:35:39.823Z,52.40
2023-05-02T11:38:06.469Z,51.07
2023-05-02T11:40:34.037Z,51.02
2023-05-02T11:43:00.635Z,51.54
2023-05-02T11:45:27.195Z,52.09
2023-05-02T11:47:53.815Z,51.47
2023-05-02T11:50:20.425Z,51.40
2023-05-02T11:52:47.174Z,51.97
2023-05-02T11:55:13.738Z,52.62
2023-05-02T11:57:40.312Z,52.41
2023-05-02T12:00:06.992Z,51.77
2023-05-02T12:02:33.690Z,52.73
2023-05-02T12:05:00.448Z,52.66
2023-05-02T12:07:27.298Z,53.25
2023-05-02T12:09:53.918Z,52.35
2023-05-02T12:12:20.579Z,51.93
2023-05-02T12:14:47.184Z,52.80
2023-05-02T12:17:13.739Z,51.79
2023-05-02T12:19:40.546Z,52.39
2023-05-02T12:22:07.107Z,52.01
2023-05-02T12:24:33.614Z,51.96
2023-05-02T12:27:00.219Z,51.46
2023-05-02T12:29:26.783Z,51.45
2023-05-02T12:31:53.428Z,51.60
2023-05-02T12:34:20.080Z,51.58
2023-05-02T12:36:46.674Z,52.43
2023-05-02T12:39:13.241Z,52.66
2023-05-02T12:41:39.830Z,51.79
2023-05-02T12:44:06.423Z,53.14
2023-05-02T12:46:33.233Z,52.66
2023-05-02T12:48:59.908Z,53.33
2023-05-02T12:51:26.515Z,53.57
2023-05-02T12:53:53.147Z,53.21
2023-05-02T12:56:19.727Z,54.00
2023-05-02T12:58:46.462Z,54.21
2023-05-02T13:01:13.630Z,54.53
2023-05-02T13:03:40.303Z,55.58
2023-05-02T13:06:06.934Z,55.51
2023-05-02T13:08:33.615Z,57.61
2023-05-02T13:11:00.205Z,57.04
2023-05-02T13:13:26.958Z,56.78
2023-05-02T13:15:53.538Z,58.04
2023-05-02T13:18:20.156Z,57.99
2023-05-02T13:20:46.728Z,58.04
2023-05-02T13:23:13.304Z,58.00
2023-05-02T13:25:39.999Z,57.77
2023-05-02T13:28:06.582Z,58.12
2023-05-02T13:30:33.331Z,59.29
2023-05-02T13:33:00.069Z,58.79
2023-05-02T13:35:26.714Z,58.56
2023-05-02T13:37:54.314Z,58.11
2023-05-02T13:40:21.009Z,59.41
2023-05-02T13:42:47.614Z,59.26
2023-05-02T13:45:14.223Z,58.91
2023-05-02T13:47:41.534Z,59.85
2023-05-02T13:50:08.345Z,60.23
2023-05-02T13:52:34.987Z,59.88
2023-05-02T13:55:01.586Z,59.33
2023-05-02T13:57:28.208Z,58.62
2023-05-02T13:59:54.770Z,58.65
2023-05-02T14:02:21.397Z,58.87
2023-05-02T14:04:47.976Z,60.38
2023-05-02T14:07:14.555Z,59.69
2023-05-02T14:09:41.344Z,59.71
2023-05-02T14:12:08.021Z,58.42
2023-05-02T14:14:34.713Z,58.90
2023-05-02T14:17:01.339Z,58.39
2023-05-02T14:19:27.947Z,59.43
2023-05-02T14:21:54.530Z,59.26
2023-05-02T14:24:21.125Z,59.76
2023-05-02T14:26:47.702Z,59.19
2023-05-02T14:29:14.283Z,58.52
2023-05-02T14:31:40.908Z,58.93
2023-05-02T14:34:09.036Z,58.68
2023-05-02T14:36:35.848Z,58.46
2023-05-02T14:39:02.461Z,58.22
2023-05-02T14:41:29.215Z,58.62
2023-05-02T14:43:55.773Z,58.81
2023-05-02T14:46:22.400Z,58.59
2023-05-02T14:48:49.036Z,60.34
2023-05-02T14:51:15.697Z,60.31
2023-05-02T14:53:42.482Z,60.15
2023-05-02T14:56:09.142Z,60.41
2023-05-02T14:58:35.839Z,60.03
2023-05-02T15:01:02.495Z,60.34
2023-05-02T15:03:29.279Z,59.85
2023-05-02T15:05:55.979Z,59.80
2023-05-02T15:08:22.626Z,60.24
2023-05-02T15:10:49.205Z,60.28
2023-05-02T15:13:15.775Z,59.80
2023-05-02T15:15:42.491Z,59.72
2023-05-02T15:18:09.124Z,60.09
2023-05-02T15:20:35.767Z,60.43
2023-05-02T15:23:02.368Z,59.73
2023-05-02T15:25:28.949Z,60.22
2023-05-02T15:27:55.561Z,60.25
2023-05-02T15:30:23.523Z,60.77
2023-05-02T15:32:50.323Z,61.02
2023-05-02T15:35:16.957Z,60.02
2023-05-02T15:37:43.567Z,60.55
2023-05-02T15:40:10.212Z,61.19
2023-05-02T15:42:37.166Z,61.37
2023-05-02T15:45:03.874Z,61.27
2023-05-02T15:47:30.545Z,61.17
2023-05-02T15:49:57.466Z,59.88
2023-05-02T15:52:24.063Z,59.39
2023-05-02T15:54:50.599Z,60.44
2023-05-02T15:57:17.163Z,60.55
2023-05-02T15:59:44.089Z,59.86
2023-05-02T16:02:10.641Z,59.79
2023-05-02T16:04:37.309Z,59.26
2023-05-02T16:07:03.870Z,59.79
2023-05-02T16:09:30.494Z,59.43
2023-05-02T16:11:57.091Z,59.13
2023-05-02T16:14:23.676Z,59.72
2023-05-02T16:16:50.278Z,59.88
2023-05-02T16:19:17.490Z,60.08
2023-05-02T16:21:44.284Z,59.62
2023-05-02T16:24:10.851Z,59.77
2023-05-02T16:26:37.469Z,59.34
2023-05-02T16:29:04.038Z,60.14
2023-05-02T16:31:30.660Z,59.77
2023-05-02T16:33:59.465Z,59.99
2023-05-02T16:36:26.353Z,59.23
2023-05-02T16:38:52.969Z,59.65
2023-05-02T16:41:19.605Z,60.03
2023-05-02T16:43:46.229Z,60.05
2023-05-02T16:46:12.808Z,59.69
2023-05-02T16:48:39.450Z,59.56
2023-05-02T16:51:06.011Z,59.87
2023-05-02T16:53:32.867Z,59.24
2023-05-02T16:55:59.635Z,59.07
2023-05-02T16:58:26.354Z,58.88
2023-05-02T17:00:52.973Z,60.25
2023-05-02T17:03:19.548Z,59.98
2023-05-02T17:05:46.233Z,58.88
2023-05-02T17:08:12.869Z,58.98
2023-05-02T17:10:39.422Z,59.22
2023-05-02T17:13:06.021Z,59.17
2023-05-02T17:15:32.650Z,58.88
2023-05-02T17:17:59.279Z,58.35
2023-05-02T17:20:25.923Z,58.55
2023-05-02T17:22:52.477Z,57.79
2023-05-02T17:25:19.324Z,58.45
2023-05-02T17:27:46.097Z,58.57
2023-05-02T17:30:12.681Z,58.84
2023-05-02T17:32:39.261Z,60.39
2023-05-02T17:35:05.905Z,60.66
2023-05-02T17:37:32.496Z,61.03
2023-05-02T17:39:59.079Z,61.03
2023-05-02T17:42:25.713Z,60.11
2023-05-02T17:44:52.265Z,60.24
2023-05-02T17:47:18.864Z,60.50
2023-05-02T17:49:45.540Z,60.38
2023-05-02T17:52:12.145Z,60.61
2023-05-02T17:54:38.865Z,61.41
2023-05-02T17:57:05.470Z,61.11
2023-05-02T17:59:32.073Z,62.11
2023-05-02T18:01:58.742Z,61.68
2023-05-02T18:04:25.435Z,61.50
2023-05-02T18:06:52.220Z,62.36
2023-05-02T18:09:18.909Z,61.48
2023-05-02T18:11:45.510Z,61.42
2023-05-02T18:14:12.078Z,62.16
2023-05-02T18:16:38.772Z,62.94
2023-05-02T18:19:05.379Z,61.89
2023-05-02T18:21:31.998Z,61.62
2023-05-02T18:23:58.590Z,61.89
2023-05-02T18:26:25.210Z,62.04
2023-05-02T18:28:51.799Z,61.97
2023-05-02T18:31:18.465Z,62.66
2023-05-02T18:33:45.135Z,61.84
2023-05-02T18:36:11.728Z,60.88
2023-05-02T18:38:38.347Z,61.05
2023-05-02T18:41:04.945Z,61.60
2023-05-02T18:43:31.579Z,60.61
2023-05-02T18:45:58.182Z,61.61
2023-05-02T18:48:24.755Z,61.24
2023-05-02T18:50:51.344Z,61.61
2023-05-02T18:53:17.903Z,61.17
2023-05-02T18:55:44.543Z,61.30
2023-05-02T18:58:11.134Z,61.29
2023-05-02T19:00:37.727Z,61.51
2023-05-02T19:03:04.546Z,61.80
2023-05-02T19:05:31.276Z,62.16
2023-05-02T19:07:57.856Z,61.53
2023-05-02T19:10:24.445Z,61.93
2023-05-02T19:12:51.046Z,61.37
2023-05-02T19:15:17.650Z,61.56
2023-05-02T19:17:44.301Z,60.97
2023-05-02T19:20:11.010Z,60.75
2023-05-02T19:22:37.591Z,61.19
2023-05-02T19:25:04.274Z,61.18
2023-05-02T19:27:31.053Z,60.13
2023-05-02T19:29:57.665Z,60.42
2023-05-02T19:32:24.280Z,60.39
2023-05-02T19:34:50.888Z,59.50
2023-05-02T19:37:17.503Z,59.84
2023-05-02T19:39:44.064Z,59.95
2023-05-02T19:42:10.693Z,60.67
2023-05-02T19:44:37.277Z,59.85
2023-05-02T19:47:03.830Z,60.00
2023-05-02T19:49:30.424Z,61.03
2023-05-02T19:51:57.016Z,60.77
2023-05-02T19:54:23.650Z,60.46
2023-05-02T19:56:50.613Z,60.62
2023-05-02T19:59:17.188Z,60.09
2023-05-02T20:01:43.862Z,60.11
2023-05-02T20:04:10.452Z,59.83
2023-05-02T20:06:37.080Z,59.30
2023-05-02T20:09:03.815Z,59.76
2023-05-02T20:11:30.467Z,60.62
2023-05-02T20:13:57.129Z,60.07
2023-05-02T20:16:23.745Z,59.72
2023-05-02T20:18:50.353Z,59.16
2023-05-02T20:21:16.980Z,59.78
2023-05-02T20:23:43.730Z,60.35
2023-05-02T20:26:10.343Z,60.49
2023-05-02T20:28:36.904Z,60.60
2023-05-02T20:31:03.527Z,60.96
2023-05-02T20:33:43.921Z,61.37
2023-05-02T20:36:11.546Z,60.27
2023-05-02T20:38:38.286Z,59.73
2023-05-02T20:41:04.836Z,60.68
2023-05-02T20:43:31.518Z,60.53
2023-05-02T20:45:58.132Z,60.39
2023-05-02T20:48:24.725Z,60.27
2023-05-02T20:50:51.305Z,60.73
2023-05-02T20:53:17.943Z,60.81
2023-05-02T20:55:44.561Z,61.10
2023-05-02T20:58:11.182Z,61.68
2023-05-02T21:00:37.815Z,61.54
2023-05-02T21:03:04.460Z,60.42
2023-05-02T21:05:31.121Z,60.61
2023-05-02T21:07:57.675Z,60.42
2023-05-02T21:10:24.258Z,60.06
2023-05-02T21:12:50.813Z,60.47
2023-05-02T21:15:17.442Z,61.31
2023-05-02T21:17:44.107Z,61.07
2023-05-02T21:20:10.689Z,61.02
2023-05-02T21:22:37.284Z,60.71
2023-05-02T21:25:03.875Z,60.25
2023-05-02T21:27:30.518Z,59.96
2023-05-02T21:29:57.235Z,60.22
2023-05-02T21:32:23.852Z,59.69
2023-05-02T21:34:50.470Z,60.04
2023-05-02T21:37:17.044Z,59.73
2023-05-02T21:39:43.626Z,59.24
2023-05-02T21:42:10.183Z,59.56
2023-05-02T21:44:36.817Z,60.10
2023-05-02T21:47:03.455Z,59.66
2023-05-02T21:49:30.088Z,59.18
2023-05-02T21:51:56.659Z,59.96
2023-05-02T21:54:23.240Z,59.76
2023-05-02T21:56:49.854Z,59.53
2023-05-02T21:59:16.418Z,59.70
2023-05-02T22:01:43.144Z,59.98
2023-05-02T22:04:09.821Z,59.93
2023-05-02T22:06:36.596Z,59.49
2023-05-02T22:09:03.199Z,60.21
2023-05-02T22:11:29.801Z,60.41
2023-05-02T22:13:57.813Z,60.23
2023-05-02T22:16:24.439Z,59.75
2023-05-02T22:18:51.105Z,60.61
2023-05-02T22:21:17.698Z,60.85
2023-05-02T22:23:44.282Z,60.26
2023-05-02T22:26:11.243Z,60.29
2023-05-02T22:28:37.826Z,60.65
2023-05-02T22:31:04.386Z,60.79
2023-05-02T22:33:31.072Z,60.97
2023-05-02T22:35:57.631Z,60.94
2023-05-02T22:38:24.257Z,60.50
2023-05-02T22:40:50.852Z,60.76
2023-05-02T22:43:17.429Z,60.92
2023-05-02T22:45:44.030Z,60.51
2023-05-02T22:48:10.763Z,61.13
2023-05-02T22:50:37.415Z,60.87
2023-05-02T22:53:04.368Z,61.53
2023-05-02T22:55:31.064Z,61.48
2023-05-02T22:57:57.659Z,60.84
2023-05-02T23:00:24.229Z,61.21
2023-05-02T23:02:50.904Z,61.12
2023-05-02T23:05:17.588Z,60.93
2023-05-02T23:07:44.202Z,61.24
2023-05-02T23:10:10.776Z,61.42
2023-05-02T23:12:37.408Z,61.80
2023-05-02T23:15:04.017Z,61.34
2023-05-02T23:17:30.722Z,61.38
2023-05-02T23:19:57.510Z,60.51
2023-05-02T23:22:24.286Z,60.53
2023-05-02T23:24:53.262Z,60.29
2023-05-02T23:27:19.857Z,61.03
2023-05-02T23:29:46.437Z,61.06
2023-05-02T23:32:13.092Z,60.97
2023-05-02T23:34:39.721Z,61.02
2023-05-02T23:37:06.298Z,61.39
2023-05-02T23:39:32.903Z,60.84
2023-05-02T23:41:59.770Z,60.90
2023-05-02T23:44:26.360Z,60.72
2023-05-02T23:46:53.162Z,60.77
2023-05-02T23:49:19.790Z,60.46
2023-05-02T23:51:46.459Z,60.63
2023-05-02T23:54:13.043Z,60.38
2023-05-02T23:56:39.639Z,60.68
2023-05-02T23:59:06.220Z,61.12
